sensor_id;sensor_type;location;lat;lon;timestamp;pressure;altitude;pressure_sealevel;temperature;humidity
84316;BME280;74496;52.236;5.164;2024-03-25T00:00:29;100717.03;;;6.49;77.21
84316;BME280;74496;52.236;5.164;2024-03-25T00:02:55;100718.69;;;6.50;76.51
84316;BME280;74496;52.236;5.164;2024-03-25T00:05:21;100719.75;;;6.48;76.18
84316;BME280;74496;52.236;5.164;2024-03-25T00:07:52;100708.66;;;6.44;76.47
84316;BME280;74496;52.236;5.164;2024-03-25T00:10:18;100712.22;;;6.43;76.91
84316;BME280;74496;52.236;5.164;2024-03-25T00:12:46;100721.97;;;6.41;76.68
84316;BME280;74496;52.236;5.164;2024-03-25T00:15:11;100716.75;;;6.41;76.92
84316;BME280;74496;52.236;5.164;2024-03-25T00:17:38;100716.88;;;6.40;77.04
84316;BME280;74496;52.236;5.164;2024-03-25T00:20:05;100715.22;;;6.39;76.98
84316;BME280;74496;52.236;5.164;2024-03-25T00:22:34;100719.50;;;6.40;77.31
84316;BME280;74496;52.236;5.164;2024-03-25T00:25:01;100723.06;;;6.39;77.27
84316;BME280;74496;52.236;5.164;2024-03-25T00:27:28;100712.59;;;6.39;77.58
84316;BME280;74496;52.236;5.164;2024-03-25T00:29:55;100710.78;;;6.39;78.03
84316;BME280;74496;52.236;5.164;2024-03-25T00:32:22;100704.59;;;6.40;78.08
84316;BME280;74496;52.236;5.164;2024-03-25T00:34:48;100705.19;;;6.44;78.28
84316;BME280;74496;52.236;5.164;2024-03-25T00:37:14;100699.97;;;6.44;77.50
84316;BME280;74496;52.236;5.164;2024-03-25T00:39:40;100696.50;;;6.43;77.13
84316;BME280;74496;52.236;5.164;2024-03-25T00:42:08;100693.06;;;6.43;77.42
84316;BME280;74496;52.236;5.164;2024-03-25T00:44:34;100690.53;;;6.41;77.18
84316;BME280;74496;52.236;5.164;2024-03-25T00:47:00;100688.03;;;6.40;76.72
84316;BME280;74496;52.236;5.164;2024-03-25T00:49:26;100695.91;;;6.40;77.20
84316;BME280;74496;52.236;5.164;2024-03-25T00:51:53;100691.84;;;6.36;76.91
84316;BME280;74496;52.236;5.164;2024-03-25T00:54:18;100687.75;;;6.31;77.38
84316;BME280;74496;52.236;5.164;2024-03-25T00:56:45;100697.63;;;6.28;77.31
84316;BME280;74496;52.236;5.164;2024-03-25T00:59:13;100693.47;;;6.25;77.40
84316;BME280;74496;52.236;5.164;2024-03-25T01:01:39;100707.50;;;6.24;77.48
84316;BME280;74496;52.236;5.164;2024-03-25T01:04:05;100706.91;;;6.21;77.46
84316;BME280;74496;52.236;5.164;2024-03-25T01:06:33;100698.81;;;6.24;78.03
84316;BME280;74496;52.236;5.164;2024-03-25T01:08:59;100709.53;;;6.21;77.66
84316;BME280;74496;52.236;5.164;2024-03-25T01:11:25;100707.94;;;6.18;77.26
84316;BME280;74496;52.236;5.164;2024-03-25T01:13:51;100711.53;;;6.17;77.87
84316;BME280;74496;52.236;5.164;2024-03-25T01:16:19;100712.25;;;6.19;78.00
84316;BME280;74496;52.236;5.164;2024-03-25T01:18:45;100711.44;;;6.19;78.17
84316;BME280;74496;52.236;5.164;2024-03-25T01:21:11;100707.72;;;6.21;77.65
84316;BME280;74496;52.236;5.164;2024-03-25T01:23:37;100707.84;;;6.20;77.68
84316;BME280;74496;52.236;5.164;2024-03-25T01:26:04;100708.69;;;6.20;77.42
84316;BME280;74496;52.236;5.164;2024-03-25T01:28:30;100709.88;;;6.16;77.45
84316;BME280;74496;52.236;5.164;2024-03-25T01:30:56;100714.50;;;6.13;77.54
84316;BME280;74496;52.236;5.164;2024-03-25T01:33:23;100717.81;;;6.15;77.68
84316;BME280;74496;52.236;5.164;2024-03-25T01:35:50;100717.81;;;6.15;77.09
84316;BME280;74496;52.236;5.164;2024-03-25T01:38:16;100711.88;;;6.13;77.67
84316;BME280;74496;52.236;5.164;2024-03-25T01:40:43;100715.44;;;6.11;77.89
84316;BME280;74496;52.236;5.164;2024-03-25T01:43:10;100715.44;;;6.11;77.85
84316;BME280;74496;52.236;5.164;2024-03-25T01:45:37;100709.25;;;6.13;78.12
84316;BME280;74496;52.236;5.164;2024-03-25T01:48:06;100705.91;;;6.10;78.59
84316;BME280;74496;52.236;5.164;2024-03-25T01:50:39;100702.69;;;6.07;77.88
84316;BME280;74496;52.236;5.164;2024-03-25T01:53:06;100699.09;;;6.08;78.22
84316;BME280;74496;52.236;5.164;2024-03-25T01:55:35;100704.47;;;6.06;77.80
84316;BME280;74496;52.236;5.164;2024-03-25T01:58:01;100710.41;;;6.08;77.67
84316;BME280;74496;52.236;5.164;2024-03-25T02:00:28;100715.44;;;6.11;77.76
84316;BME280;74496;52.236;5.164;2024-03-25T02:02:54;100711.03;;;6.12;77.46
84316;BME280;74496;52.236;5.164;2024-03-25T02:05:22;100721.41;;;6.14;77.35
84316;BME280;74496;52.236;5.164;2024-03-25T02:07:49;100710.91;;;6.14;77.03
84316;BME280;74496;52.236;5.164;2024-03-25T02:10:17;100712.81;;;6.11;77.52
84316;BME280;74496;52.236;5.164;2024-03-25T02:12:44;100714.94;;;6.06;77.28
84316;BME280;74496;52.236;5.164;2024-03-25T02:15:12;100722.78;;;6.06;77.66
84316;BME280;74496;52.236;5.164;2024-03-25T02:17:38;100722.06;;;6.04;78.13
84316;BME280;74496;52.236;5.164;2024-03-25T02:20:06;100721.34;;;6.02;77.50
84316;BME280;74496;52.236;5.164;2024-03-25T02:22:33;100727.50;;;6.01;77.94
84316;BME280;74496;52.236;5.164;2024-03-25T02:25:06;100725.25;;;5.97;77.77
84316;BME280;74496;52.236;5.164;2024-03-25T02:27:33;100722.19;;;5.90;77.78
84316;BME280;74496;52.236;5.164;2024-03-25T02:30:07;100729.31;;;5.88;78.01
84316;BME280;74496;52.236;5.164;2024-03-25T02:32:33;100715.38;;;5.87;77.93
84316;BME280;74496;52.236;5.164;2024-03-25T02:35:01;100718.97;;;5.86;77.63
84316;BME280;74496;52.236;5.164;2024-03-25T02:37:28;100715.50;;;5.86;78.18
84316;BME280;74496;52.236;5.164;2024-03-25T02:39:59;100722.50;;;5.85;78.38
84316;BME280;74496;52.236;5.164;2024-03-25T02:42:26;100719.06;;;5.85;78.29
84316;BME280;74496;52.236;5.164;2024-03-25T02:44:55;100716.78;;;5.80;78.11
84316;BME280;74496;52.236;5.164;2024-03-25T02:47:21;100716.66;;;5.82;78.39
84316;BME280;74496;52.236;5.164;2024-03-25T02:49:48;100714.25;;;5.79;78.86
84316;BME280;74496;52.236;5.164;2024-03-25T02:52:14;100714.38;;;5.77;78.71
84316;BME280;74496;52.236;5.164;2024-03-25T02:54:41;100710.19;;;5.75;78.29
84316;BME280;74496;52.236;5.164;2024-03-25T02:57:07;100710.09;;;5.76;78.31
84316;BME280;74496;52.236;5.164;2024-03-25T02:59:33;100710.41;;;5.72;78.78
84316;BME280;74496;52.236;5.164;2024-03-25T03:02:00;100710.31;;;5.73;78.83
84316;BME280;74496;52.236;5.164;2024-03-25T03:04:27;100699.13;;;5.71;79.02
84316;BME280;74496;52.236;5.164;2024-03-25T03:06:53;100700.16;;;5.69;79.41
84316;BME280;74496;52.236;5.164;2024-03-25T03:09:19;100703.28;;;5.74;79.61
84316;BME280;74496;52.236;5.164;2024-03-25T03:11:45;100701.50;;;5.74;79.42
84316;BME280;74496;52.236;5.164;2024-03-25T03:14:12;100690.00;;;5.77;79.09
84316;BME280;74496;52.236;5.164;2024-03-25T03:16:37;100689.16;;;5.76;79.29
84316;BME280;74496;52.236;5.164;2024-03-25T03:19:05;100694.19;;;5.79;79.49
84316;BME280;74496;52.236;5.164;2024-03-25T03:21:31;100685.16;;;5.83;79.39
84316;BME280;74496;52.236;5.164;2024-03-25T03:23:58;100682.31;;;5.86;79.14
84316;BME280;74496;52.236;5.164;2024-03-25T03:26:24;100680.75;;;5.84;79.11
84316;BME280;74496;52.236;5.164;2024-03-25T03:28:52;100682.41;;;5.85;79.10
84316;BME280;74496;52.236;5.164;2024-03-25T03:31:18;100680.22;;;5.79;78.89
84316;BME280;74496;52.236;5.164;2024-03-25T03:33:46;100685.69;;;5.76;78.89
84316;BME280;74496;52.236;5.164;2024-03-25T03:36:14;100682.56;;;5.71;78.16
84316;BME280;74496;52.236;5.164;2024-03-25T03:38:41;100686.25;;;5.68;78.42
84316;BME280;74496;52.236;5.164;2024-03-25T03:41:06;100692.66;;;5.64;78.78
84316;BME280;74496;52.236;5.164;2024-03-25T03:43:33;100688.47;;;5.61;78.66
84316;BME280;74496;52.236;5.164;2024-03-25T03:45:59;100680.94;;;5.57;79.09
84316;BME280;74496;52.236;5.164;2024-03-25T03:48:25;100680.22;;;5.55;78.79
84316;BME280;74496;52.236;5.164;2024-03-25T03:50:51;100684.22;;;5.48;78.59
84316;BME280;74496;52.236;5.164;2024-03-25T03:53:19;100681.19;;;5.41;79.66
84316;BME280;74496;52.236;5.164;2024-03-25T03:55:53;100680.78;;;5.34;79.16
84316;BME280;74496;52.236;5.164;2024-03-25T03:58:19;100681.97;;;5.30;79.07
84316;BME280;74496;52.236;5.164;2024-03-25T04:00:45;100670.00;;;5.26;78.59
84316;BME280;74496;52.236;5.164;2024-03-25T04:03:12;100676.41;;;5.22;79.21
84316;BME280;74496;52.236;5.164;2024-03-25T04:05:37;100673.19;;;5.18;78.83
84316;BME280;74496;52.236;5.164;2024-03-25T04:08:05;100669.94;;;5.15;78.94
84316;BME280;74496;52.236;5.164;2024-03-25T04:10:32;100673.72;;;5.11;79.58
84316;BME280;74496;52.236;5.164;2024-03-25T04:12:59;100676.41;;;5.09;78.28
84316;BME280;74496;52.236;5.164;2024-03-25T04:15:25;100673.81;;;5.09;79.35
84316;BME280;74496;52.236;5.164;2024-03-25T04:17:54;100680.19;;;5.05;79.43
84316;BME280;74496;52.236;5.164;2024-03-25T04:20:20;100681.78;;;5.08;79.61
84316;BME280;74496;52.236;5.164;2024-03-25T04:22:46;100683.56;;;5.07;79.61
84316;BME280;74496;52.236;5.164;2024-03-25T04:25:13;100672.34;;;5.05;79.87
84316;BME280;74496;52.236;5.164;2024-03-25T04:27:42;100678.97;;;4.98;79.63
84316;BME280;74496;52.236;5.164;2024-03-25T04:30:10;100680.75;;;4.98;79.45
84316;BME280;74496;52.236;5.164;2024-03-25T04:32:38;100673.81;;;4.97;79.09
84316;BME280;74496;52.236;5.164;2024-03-25T04:35:04;100680.81;;;4.96;79.36
84316;BME280;74496;52.236;5.164;2024-03-25T04:37:32;100677.50;;;4.94;79.69
84316;BME280;74496;52.236;5.164;2024-03-25T04:39:58;100682.59;;;4.96;79.90
84316;BME280;74496;52.236;5.164;2024-03-25T04:42:23;100677.16;;;4.99;79.40
84316;BME280;74496;52.236;5.164;2024-03-25T04:44:50;100670.16;;;4.99;79.66
84316;BME280;74496;52.236;5.164;2024-03-25T04:47:16;100678.75;;;5.01;79.74
84316;BME280;74496;52.236;5.164;2024-03-25T04:49:42;100676.84;;;5.03;79.64
84316;BME280;74496;52.236;5.164;2024-03-25T04:52:10;100681.56;;;5.11;79.47
84316;BME280;74496;52.236;5.164;2024-03-25T04:54:37;100673.81;;;5.09;79.27
84316;BME280;74496;52.236;5.164;2024-03-25T04:57:03;100679.03;;;5.09;78.72
84316;BME280;74496;52.236;5.164;2024-03-25T04:59:29;100674.44;;;5.13;79.02
84316;BME280;74496;52.236;5.164;2024-03-25T05:01:56;100676.22;;;5.12;78.86
84316;BME280;74496;52.236;5.164;2024-03-25T05:04:21;100683.56;;;5.07;78.37
84316;BME280;74496;52.236;5.164;2024-03-25T05:06:47;100683.84;;;5.03;78.69
84316;BME280;74496;52.236;5.164;2024-03-25T05:09:13;100684.81;;;5.02;78.72
84316;BME280;74496;52.236;5.164;2024-03-25T05:11:39;100683.16;;;5.01;78.88
84316;BME280;74496;52.236;5.164;2024-03-25T05:14:04;100691.91;;;5.00;79.25
84316;BME280;74496;52.236;5.164;2024-03-25T05:16:30;100687.84;;;4.96;78.96
84316;BME280;74496;52.236;5.164;2024-03-25T05:18:57;100692.22;;;4.95;79.04
84316;BME280;74496;52.236;5.164;2024-03-25T05:21:23;100693.19;;;4.94;79.20
84316;BME280;74496;52.236;5.164;2024-03-25T05:23:49;100705.31;;;4.95;79.19
84316;BME280;74496;52.236;5.164;2024-03-25T05:26:14;100707.72;;;4.98;79.90
84316;BME280;74496;52.236;5.164;2024-03-25T05:28:40;100711.06;;;5.00;80.11
84316;BME280;74496;52.236;5.164;2024-03-25T05:31:07;100707.50;;;5.01;80.26
84316;BME280;74496;52.236;5.164;2024-03-25T05:33:33;100704.78;;;5.03;81.10
84316;BME280;74496;52.236;5.164;2024-03-25T05:36:01;100705.50;;;5.05;80.89
84316;BME280;74496;52.236;5.164;2024-03-25T05:38:28;100709.50;;;5.10;80.64
84316;BME280;74496;52.236;5.164;2024-03-25T05:40:54;100703.81;;;5.16;80.87
84316;BME280;74496;52.236;5.164;2024-03-25T05:43:20;100703.72;;;5.18;80.38
84316;BME280;74496;52.236;5.164;2024-03-25T05:45:53;100705.09;;;5.24;80.18
84316;BME280;74496;52.236;5.164;2024-03-25T05:48:19;100701.94;;;5.31;80.61
84316;BME280;74496;52.236;5.164;2024-03-25T05:50:45;100696.16;;;5.39;80.37
84316;BME280;74496;52.236;5.164;2024-03-25T05:53:12;100695.22;;;5.40;80.08
84316;BME280;74496;52.236;5.164;2024-03-25T05:55:38;100700.25;;;5.43;79.98
84316;BME280;74496;52.236;5.164;2024-03-25T05:58:04;100693.94;;;5.46;79.52
84316;BME280;74496;52.236;5.164;2024-03-25T06:00:30;100691.53;;;5.43;79.83
84316;BME280;74496;52.236;5.164;2024-03-25T06:02:56;100698.47;;;5.44;79.88
84316;BME280;74496;52.236;5.164;2024-03-25T06:05:22;100695.63;;;5.47;79.37
84316;BME280;74496;52.236;5.164;2024-03-25T06:07:47;100691.13;;;5.36;80.35
84316;BME280;74496;52.236;5.164;2024-03-25T06:10:14;100693.88;;;5.34;80.33
84316;BME280;74496;52.236;5.164;2024-03-25T06:12:40;100688.53;;;5.36;79.81
84316;BME280;74496;52.236;5.164;2024-03-25T06:15:07;100686.84;;;5.35;79.61
84316;BME280;74496;52.236;5.164;2024-03-25T06:17:33;100684.75;;;5.40;80.02
84316;BME280;74496;52.236;5.164;2024-03-25T06:19:59;100686.75;;;5.36;79.77
84316;BME280;74496;52.236;5.164;2024-03-25T06:22:24;100686.31;;;5.43;79.74
84316;BME280;74496;52.236;5.164;2024-03-25T06:24:50;100692.41;;;5.43;79.64
84316;BME280;74496;52.236;5.164;2024-03-25T06:27:17;100692.16;;;5.46;80.00
84316;BME280;74496;52.236;5.164;2024-03-25T06:29:43;100691.31;;;5.46;79.59
84316;BME280;74496;52.236;5.164;2024-03-25T06:32:09;100680.44;;;5.52;80.18
84316;BME280;74496;52.236;5.164;2024-03-25T06:34:49;100682.63;;;5.58;79.88
84316;BME280;74496;52.236;5.164;2024-03-25T06:37:16;100680.53;;;5.63;79.99
84316;BME280;74496;52.236;5.164;2024-03-25T06:39:41;100674.13;;;5.67;79.83
84316;BME280;74496;52.236;5.164;2024-03-25T06:42:07;100682.25;;;5.75;79.75
84316;BME280;74496;52.236;5.164;2024-03-25T06:44:34;100674.91;;;5.80;79.80
84316;BME280;74496;52.236;5.164;2024-03-25T06:47:00;100684.19;;;5.84;79.90
84316;BME280;74496;52.236;5.164;2024-03-25T06:49:25;100679.47;;;5.90;79.93
84316;BME280;74496;52.236;5.164;2024-03-25T06:51:51;100681.78;;;5.94;80.06
84316;BME280;74496;52.236;5.164;2024-03-25T06:54:17;100682.28;;;5.99;79.43
84316;BME280;74496;52.236;5.164;2024-03-25T06:56:43;100670.44;;;6.06;79.18
84316;BME280;74496;52.236;5.164;2024-03-25T06:59:09;100674.59;;;6.09;79.70
84316;BME280;74496;52.236;5.164;2024-03-25T07:01:36;100674.13;;;6.15;79.59
84316;BME280;74496;52.236;5.164;2024-03-25T07:04:01;100676.44;;;6.20;79.42
84316;BME280;74496;52.236;5.164;2024-03-25T07:06:27;100680.38;;;6.25;79.19
84316;BME280;74496;52.236;5.164;2024-03-25T07:08:53;100677.06;;;6.34;78.95
84316;BME280;74496;52.236;5.164;2024-03-25T07:11:19;100673.75;;;6.44;79.37
84316;BME280;74496;52.236;5.164;2024-03-25T07:13:44;100678.31;;;6.53;78.65
84316;BME280;74496;52.236;5.164;2024-03-25T07:16:10;100676.06;;;6.60;78.41
84316;BME280;74496;52.236;5.164;2024-03-25T07:18:37;100681.56;;;6.68;78.25
84316;BME280;74496;52.236;5.164;2024-03-25T07:21:03;100693.50;;;6.83;78.28
84316;BME280;74496;52.236;5.164;2024-03-25T07:23:29;100687.19;;;6.97;77.75
84316;BME280;74496;52.236;5.164;2024-03-25T07:25:55;100684.34;;;7.00;77.18
84316;BME280;74496;52.236;5.164;2024-03-25T07:28:20;100684.56;;;6.97;77.43
84316;BME280;74496;52.236;5.164;2024-03-25T07:30:46;100688.75;;;6.99;76.88
84316;BME280;74496;52.236;5.164;2024-03-25T07:33:15;100681.03;;;7.09;76.43
84316;BME280;74496;52.236;5.164;2024-03-25T07:35:42;100679.13;;;7.11;76.52
84316;BME280;74496;52.236;5.164;2024-03-25T07:38:07;100686.25;;;7.20;76.62
84316;BME280;74496;52.236;5.164;2024-03-25T07:40:33;100690.69;;;7.31;76.57
84316;BME280;74496;52.236;5.164;2024-03-25T07:42:59;100686.88;;;7.35;76.22
84316;BME280;74496;52.236;5.164;2024-03-25T07:45:24;100688.03;;;7.42;76.69
84316;BME280;74496;52.236;5.164;2024-03-25T07:47:51;100686.00;;;7.46;76.03
84316;BME280;74496;52.236;5.164;2024-03-25T07:50:17;100698.28;;;7.57;75.73
84316;BME280;74496;52.236;5.164;2024-03-25T07:52:44;100690.16;;;7.60;75.14
84316;BME280;74496;52.236;5.164;2024-03-25T07:55:10;100695.16;;;7.63;74.84
84316;BME280;74496;52.236;5.164;2024-03-25T07:57:37;100690.03;;;7.72;75.13
84316;BME280;74496;52.236;5.164;2024-03-25T08:00:04;100696.19;;;7.83;75.42
84316;BME280;74496;52.236;5.164;2024-03-25T08:02:37;100696.78;;;7.86;74.44
84316;BME280;74496;52.236;5.164;2024-03-25T08:05:04;100688.50;;;8.02;74.28
84316;BME280;74496;52.236;5.164;2024-03-25T08:07:30;100693.16;;;8.10;74.87
84316;BME280;74496;52.236;5.164;2024-03-25T08:09:57;100696.56;;;8.21;74.24
84316;BME280;74496;52.236;5.164;2024-03-25T08:12:23;100691.38;;;8.31;74.68
84316;BME280;74496;52.236;5.164;2024-03-25T08:14:48;100697.31;;;8.44;72.74
84316;BME280;74496;52.236;5.164;2024-03-25T08:17:14;100703.41;;;8.45;72.66
84316;BME280;74496;52.236;5.164;2024-03-25T08:19:40;100706.00;;;8.56;73.37
84316;BME280;74496;52.236;5.164;2024-03-25T08:22:06;100719.72;;;8.60;72.88
84316;BME280;74496;52.236;5.164;2024-03-25T08:24:31;100716.31;;;8.48;72.79
84316;BME280;74496;52.236;5.164;2024-03-25T08:26:58;100708.50;;;8.58;72.73
84316;BME280;74496;52.236;5.164;2024-03-25T08:29:24;100710.53;;;8.75;72.76
84316;BME280;74496;52.236;5.164;2024-03-25T08:31:50;100714.44;;;8.81;74.94
84316;BME280;74496;52.236;5.164;2024-03-25T08:34:16;100697.34;;;8.86;74.82
84316;BME280;74496;52.236;5.164;2024-03-25T08:36:41;100702.72;;;8.85;73.62
84316;BME280;74496;52.236;5.164;2024-03-25T08:39:07;100696.66;;;9.15;73.22
84316;BME280;74496;52.236;5.164;2024-03-25T08:41:33;100694.06;;;9.25;73.30
84316;BME280;74496;52.236;5.164;2024-03-25T08:44:00;100700.84;;;9.27;68.19
84316;BME280;74496;52.236;5.164;2024-03-25T08:46:26;100692.31;;;9.35;67.67
84316;BME280;74496;52.236;5.164;2024-03-25T08:48:52;100696.75;;;9.44;68.81
84316;BME280;74496;52.236;5.164;2024-03-25T08:51:18;100694.78;;;9.36;67.96
84316;BME280;74496;52.236;5.164;2024-03-25T08:53:43;100694.94;;;9.35;70.76
84316;BME280;74496;52.236;5.164;2024-03-25T08:56:09;100697.88;;;9.42;68.41
84316;BME280;74496;52.236;5.164;2024-03-25T08:58:35;100691.41;;;9.55;68.55
84316;BME280;74496;52.236;5.164;2024-03-25T09:01:02;100686.28;;;9.63;67.81
84316;BME280;74496;52.236;5.164;2024-03-25T09:03:28;100681.72;;;9.66;69.67
84316;BME280;74496;52.236;5.164;2024-03-25T09:05:53;100681.72;;;9.66;69.36
84316;BME280;74496;52.236;5.164;2024-03-25T09:08:19;100684.22;;;9.86;67.44
84316;BME280;74496;52.236;5.164;2024-03-25T09:10:45;100685.66;;;9.91;66.99
84316;BME280;74496;52.236;5.164;2024-03-25T09:13:30;100681.75;;;9.95;69.96
84316;BME280;74496;52.236;5.164;2024-03-25T09:15:57;100674.13;;;10.01;66.55
84316;BME280;74496;52.236;5.164;2024-03-25T09:18:24;100675.25;;;10.08;65.07
84316;BME280;74496;52.236;5.164;2024-03-25T09:20:52;100674.81;;;10.13;66.12
84316;BME280;74496;52.236;5.164;2024-03-25T09:23:17;100676.50;;;10.14;66.02
84316;BME280;74496;52.236;5.164;2024-03-25T09:25:52;100681.50;;;10.17;68.11
84316;BME280;74496;52.236;5.164;2024-03-25T09:28:18;100675.84;;;10.31;66.25
84316;BME280;74496;52.236;5.164;2024-03-25T09:30:44;100674.44;;;10.37;63.40
84316;BME280;74496;52.236;5.164;2024-03-25T09:33:10;100667.66;;;10.35;64.54
84316;BME280;74496;52.236;5.164;2024-03-25T09:35:37;100663.34;;;10.53;65.05
84316;BME280;74496;52.236;5.164;2024-03-25T09:38:03;100663.69;;;10.77;68.05
84316;BME280;74496;52.236;5.164;2024-03-25T09:40:29;100666.84;;;10.91;66.59
84316;BME280;74496;52.236;5.164;2024-03-25T09:42:58;100666.06;;;11.08;63.25
84316;BME280;74496;52.236;5.164;2024-03-25T09:45:28;100659.97;;;11.08;63.04
84316;BME280;74496;52.236;5.164;2024-03-25T09:47:55;100656.97;;;11.02;60.88
84316;BME280;74496;52.236;5.164;2024-03-25T09:50:21;100652.75;;;11.10;60.81
84316;BME280;74496;52.236;5.164;2024-03-25T09:52:49;100660.06;;;11.25;62.84
84316;BME280;74496;52.236;5.164;2024-03-25T09:55:16;100656.50;;;11.35;62.09
84316;BME280;74496;52.236;5.164;2024-03-25T09:57:42;100651.09;;;11.36;59.35
84316;BME280;74496;52.236;5.164;2024-03-25T10:00:09;100649.13;;;11.38;62.08
84316;BME280;74496;52.236;5.164;2024-03-25T10:02:40;100654.81;;;11.43;62.33
84316;BME280;74496;52.236;5.164;2024-03-25T10:05:07;100639.03;;;11.51;61.46
84316;BME280;74496;52.236;5.164;2024-03-25T10:07:33;100637.91;;;11.54;61.10
84316;BME280;74496;52.236;5.164;2024-03-25T10:10:03;100640.56;;;11.54;64.80
84316;BME280;74496;52.236;5.164;2024-03-25T10:12:29;100635.22;;;11.64;65.26
84316;BME280;74496;52.236;5.164;2024-03-25T10:14:55;100624.97;;;11.79;62.84
84316;BME280;74496;52.236;5.164;2024-03-25T10:17:21;100624.25;;;11.86;59.76
84316;BME280;74496;52.236;5.164;2024-03-25T10:19:47;100620.16;;;12.10;61.01
84316;BME280;74496;52.236;5.164;2024-03-25T10:22:13;100617.19;;;12.31;60.66
84316;BME280;74496;52.236;5.164;2024-03-25T10:24:39;100615.59;;;12.38;57.39
84316;BME280;74496;52.236;5.164;2024-03-25T10:27:10;100619.09;;;12.47;57.14
84316;BME280;74496;52.236;5.164;2024-03-25T10:29:36;100617.28;;;12.73;57.09
84316;BME280;74496;52.236;5.164;2024-03-25T10:32:02;100616.44;;;12.73;57.04
84316;BME280;74496;52.236;5.164;2024-03-25T10:34:28;100608.28;;;12.92;56.59
84316;BME280;74496;52.236;5.164;2024-03-25T10:36:56;100598.06;;;12.97;54.94
84316;BME280;74496;52.236;5.164;2024-03-25T10:39:26;100602.16;;;12.91;54.30
84316;BME280;74496;52.236;5.164;2024-03-25T10:41:56;100596.94;;;13.00;55.22
84316;BME280;74496;52.236;5.164;2024-03-25T10:44:24;100594.47;;;13.06;52.97
84316;BME280;74496;52.236;5.164;2024-03-25T10:46:52;100597.44;;;13.11;55.02
84316;BME280;74496;52.236;5.164;2024-03-25T10:49:24;100596.56;;;12.95;54.46
84316;BME280;74496;52.236;5.164;2024-03-25T10:51:53;100591.63;;;13.00;55.50
84316;BME280;74496;52.236;5.164;2024-03-25T10:54:20;100590.63;;;13.01;54.44
84316;BME280;74496;52.236;5.164;2024-03-25T10:56:48;100587.69;;;13.12;54.14
84316;BME280;74496;52.236;5.164;2024-03-25T10:59:15;100585.41;;;13.17;55.70
84316;BME280;74496;52.236;5.164;2024-03-25T11:01:42;100579.94;;;13.19;52.78
84316;BME280;74496;52.236;5.164;2024-03-25T11:04:08;100585.16;;;12.94;51.01
84316;BME280;74496;52.236;5.164;2024-03-25T11:06:33;100578.22;;;13.01;52.71
84316;BME280;74496;52.236;5.164;2024-03-25T11:08:59;100583.69;;;13.08;54.23
84316;BME280;74496;52.236;5.164;2024-03-25T11:11:31;100576.75;;;13.07;55.23
84316;BME280;74496;52.236;5.164;2024-03-25T11:13:57;100574.53;;;13.28;54.17
84316;BME280;74496;52.236;5.164;2024-03-25T11:16:32;100568.25;;;13.37;51.63
84316;BME280;74496;52.236;5.164;2024-03-25T11:19:02;100566.69;;;13.19;52.20
84316;BME280;74496;52.236;5.164;2024-03-25T11:21:28;100561.19;;;13.04;50.04
84316;BME280;74496;52.236;5.164;2024-03-25T11:23:53;100560.06;;;13.06;54.41
84316;BME280;74496;52.236;5.164;2024-03-25T11:26:20;100554.94;;;13.21;50.36
84316;BME280;74496;52.236;5.164;2024-03-25T11:28:46;100557.44;;;13.23;50.83
84316;BME280;74496;52.236;5.164;2024-03-25T11:31:12;100550.25;;;13.49;50.48
84316;BME280;74496;52.236;5.164;2024-03-25T11:33:38;100551.53;;;13.45;50.74
84316;BME280;74496;52.236;5.164;2024-03-25T11:36:06;100550.94;;;13.76;53.62
84316;BME280;74496;52.236;5.164;2024-03-25T11:38:32;100545.78;;;14.15;48.66
84316;BME280;74496;52.236;5.164;2024-03-25T11:40:58;100532.94;;;14.43;49.42
84316;BME280;74496;52.236;5.164;2024-03-25T11:43:23;100524.53;;;14.87;49.97
84316;BME280;74496;52.236;5.164;2024-03-25T11:45:49;100523.63;;;15.57;48.79
84316;BME280;74496;52.236;5.164;2024-03-25T11:48:16;100522.06;;;16.38;45.72
84316;BME280;74496;52.236;5.164;2024-03-25T11:54:36;100509.28;;;17.72;35.27
84316;BME280;74496;52.236;5.164;2024-03-25T12:23:38;100474.84;;;19.83;32.58
84316;BME280;74496;52.236;5.164;2024-03-25T12:26:04;100477.88;;;19.33;34.45
84316;BME280;74496;52.236;5.164;2024-03-25T12:28:31;100477.56;;;18.88;33.27
84316;BME280;74496;52.236;5.164;2024-03-25T12:30:57;100483.50;;;18.77;33.24
84316;BME280;74496;52.236;5.164;2024-03-25T12:33:23;100474.88;;;18.40;36.96
84316;BME280;74496;52.236;5.164;2024-03-25T12:35:50;100474.13;;;17.41;37.04
84316;BME280;74496;52.236;5.164;2024-03-25T12:38:23;100473.22;;;17.33;39.28
84316;BME280;74496;52.236;5.164;2024-03-25T12:40:51;100470.19;;;17.37;40.11
84316;BME280;74496;52.236;5.164;2024-03-25T12:43:17;100467.84;;;17.48;37.26
84316;BME280;74496;52.236;5.164;2024-03-25T12:45:43;100469.59;;;17.20;37.83
84316;BME280;74496;52.236;5.164;2024-03-25T12:48:08;100459.19;;;17.46;37.75
84316;BME280;74496;52.236;5.164;2024-03-25T12:50:34;100460.22;;;17.95;37.53
84316;BME280;74496;52.236;5.164;2024-03-25T12:53:00;100446.94;;;18.01;39.45
84316;BME280;74496;52.236;5.164;2024-03-25T12:55:27;100441.78;;;18.35;34.29
84316;BME280;74496;52.236;5.164;2024-03-25T12:57:54;100441.91;;;18.68;33.64
84316;BME280;74496;52.236;5.164;2024-03-25T13:00:20;100436.97;;;19.39;33.97
84316;BME280;74496;52.236;5.164;2024-03-25T13:02:49;100434.94;;;19.75;29.76
84316;BME280;74496;52.236;5.164;2024-03-25T13:05:15;100437.69;;;20.33;32.30
84316;BME280;74496;52.236;5.164;2024-03-25T13:07:41;100437.00;;;20.64;29.11
84316;BME280;74496;52.236;5.164;2024-03-25T13:10:07;100427.38;;;21.20;27.88
84316;BME280;74496;52.236;5.164;2024-03-25T13:12:32;100428.91;;;21.84;26.72
84316;BME280;74496;52.236;5.164;2024-03-25T13:14:59;100419.84;;;22.04;30.77
84316;BME280;74496;52.236;5.164;2024-03-25T13:17:25;100420.50;;;21.81;25.73
84316;BME280;74496;52.236;5.164;2024-03-25T13:19:51;100411.78;;;22.04;28.79
84316;BME280;74496;52.236;5.164;2024-03-25T13:22:16;100409.97;;;22.41;25.59
84316;BME280;74496;52.236;5.164;2024-03-25T13:24:42;100419.78;;;22.96;26.63